createdAt,value
2019-01-11T00:00:49.780Z,72.62
2019-01-11T00:01:49.039Z,72.68
2019-01-11T00:02:49.047Z,72.66
2019-01-11T00:03:49.146Z,72.75
2019-01-11T00:04:49.155Z,72.59
2019-01-11T00:05:48.987Z,72.77
2019-01-11T00:06:49.109Z,72.73
2019-01-11T00:07:48.979Z,72.65
2019-01-11T00:08:49.165Z,72.57
2019-01-11T00:09:49.166Z,72.5
2019-01-11T00:10:49.701Z,72.61
2019-01-11T00:11:49.319Z,72.86
2019-01-11T00:12:49.073Z,72.9
2019-01-11T00:13:49.086Z,72.91
2019-01-11T00:14:49.134Z,72.99
2019-01-11T00:15:49.290Z,72.86
2019-01-11T00:16:49.354Z,72.88
2019-01-11T00:17:49.241Z,72.9
2019-01-11T00:18:49.354Z,72.93
2019-01-11T00:19:49.315Z,73.01
2019-01-11T00:20:49.572Z,73.03
2019-01-11T00:21:48.994Z,73.04
2019-01-11T00:22:49.139Z,72.95
2019-01-11T00:23:49.107Z,72.94
2019-01-11T00:24:49.088Z,73.09
2019-01-11T00:25:49.095Z,73.41
2019-01-11T00:26:49.288Z,73.34
2019-01-11T00:27:49.239Z,73.1
2019-01-11T00:28:48.962Z,72.98
2019-01-11T00:29:49.048Z,72.96
2019-01-11T00:30:49.063Z,73.2
2019-01-11T00:31:49.780Z,73.33
2019-01-11T00:32:49.007Z,73.21
2019-01-11T00:33:49.749Z,73.28
2019-01-11T00:34:49.071Z,73.47
2019-01-11T00:35:49.097Z,73.58
2019-01-11T00:36:48.928Z,73.42
2019-01-11T00:37:49.432Z,73.28
2019-01-11T00:38:49.099Z,73.5
2019-01-11T00:39:49.074Z,73.54
2019-01-11T00:40:48.898Z,73.55
2019-01-11T00:41:48.884Z,73.64
2019-01-11T00:42:48.958Z,73.69
2019-01-11T00:43:49.030Z,73.6
2019-01-11T00:44:49.078Z,73.65
2019-01-11T00:45:49.070Z,73.69
2019-01-11T00:46:49.139Z,73.54
2019-01-11T00:47:49.385Z,73.48
2019-01-11T00:48:48.986Z,73.63
2019-01-11T00:49:48.928Z,73.72
2019-01-11T00:50:49.083Z,73.91
2019-01-11T00:51:49.131Z,73.86
2019-01-11T00:52:49.015Z,73.64
2019-01-11T00:53:49.070Z,73.87
2019-01-11T00:54:48.957Z,73.98
2019-01-11T00:55:48.885Z,74.15
2019-01-11T00:56:48.867Z,74.19
2019-01-11T00:57:49.079Z,74.03
2019-01-11T00:58:49.066Z,73.94
2019-01-11T00:59:49.150Z,73.93
2019-01-11T01:00:49.112Z,73.83
2019-01-11T01:01:49.059Z,74.1
2019-01-11T01:02:48.877Z,74.14
2019-01-11T01:03:48.866Z,74.16
2019-01-11T01:04:49.047Z,74.13
2019-01-11T01:05:48.872Z,74.11
2019-01-11T01:06:49.084Z,74.05
2019-01-11T01:07:49.170Z,74.56
2019-01-11T01:08:49.338Z,74.52
2019-01-11T01:09:49.063Z,74.35
2019-01-11T01:10:49.326Z,74.59
2019-01-11T01:11:49.379Z,74.71
2019-01-11T01:12:49.136Z,74.39
2019-01-11T01:13:49.097Z,74.7
2019-01-11T01:14:49.533Z,75.11
2019-01-11T01:15:49.366Z,74.79
2019-01-11T01:16:48.842Z,74.77
2019-01-11T01:17:49.290Z,74.86
2019-01-11T01:18:48.992Z,74.82
2019-01-11T01:19:49.227Z,74.82
2019-01-11T01:20:48.870Z,74.99
2019-01-11T01:21:49.291Z,74.89
2019-01-11T01:22:48.901Z,74.85
2019-01-11T01:23:49.625Z,74.79
2019-01-11T01:24:48.849Z,74.71
2019-01-11T01:25:49.146Z,74.77
2019-01-11T01:26:49.133Z,74.92
2019-01-11T01:27:49.158Z,74.99
2019-01-11T01:28:48.967Z,75.16
2019-01-11T01:29:49.511Z,75.02
2019-01-11T01:30:49.093Z,74.98
2019-01-11T01:31:49.171Z,75.01
2019-01-11T01:32:49.077Z,74.75
2019-01-11T01:33:49.220Z,74.73
2019-01-11T01:34:49.034Z,74.73
2019-01-11T01:35:49.129Z,74.84
2019-01-11T01:36:49.172Z,74.93
2019-01-11T01:37:49.260Z,74.84
2019-01-11T01:38:49.290Z,74.81
2019-01-11T01:39:48.924Z,74.92
2019-01-11T01:40:49.198Z,75.37
2019-01-11T01:41:49.214Z,75.42
2019-01-11T01:42:48.839Z,75.58
2019-01-11T01:43:49.358Z,75.55
2019-01-11T01:44:49.042Z,75.66
2019-01-11T01:45:49.183Z,75.41
2019-01-11T01:46:49.487Z,75.24
2019-01-11T01:47:48.976Z,75.72
2019-01-11T01:48:48.887Z,75.81
2019-01-11T01:49:49.233Z,76.09
2019-01-11T01:50:49.136Z,76.27
2019-01-11T01:51:48.762Z,76.17
2019-01-11T01:52:49.079Z,76.09
2019-01-11T01:53:49.057Z,75.85
2019-01-11T01:54:49.026Z,75.81
2019-01-11T01:55:49.077Z,75.86
2019-01-11T01:56:48.784Z,75.93
2019-01-11T01:57:48.829Z,76.23
2019-01-11T01:58:48.938Z,76.05
2019-01-11T01:59:48.805Z,76.08
2019-01-11T02:00:49.096Z,76.15
2019-01-11T02:01:49.630Z,75.99
2019-01-11T02:02:49.547Z,76.04
2019-01-11T02:03:49.108Z,75.92
2019-01-11T02:04:49.037Z,75.91
2019-01-11T02:05:48.972Z,76.63
2019-01-11T02:06:48.944Z,77.02
2019-01-11T02:07:49.388Z,77.3
2019-01-11T02:08:49.232Z,77.45
2019-01-11T02:09:49.546Z,77.39
2019-01-11T02:10:48.796Z,77.42
2019-01-11T02:11:49.046Z,77.25
2019-01-11T02:12:48.881Z,77.27
2019-01-11T02:13:48.789Z,77.27
2019-01-11T02:14:48.881Z,77.11
2019-01-11T02:15:48.792Z,76.78
2019-01-11T02:16:48.779Z,76.46
2019-01-11T02:17:48.842Z,76.48
2019-01-11T02:18:48.850Z,76.66
2019-01-11T02:19:48.784Z,76.69
2019-01-11T02:20:48.998Z,76.59
2019-01-11T02:21:49.167Z,76.58
2019-01-11T02:22:49.151Z,76.48
2019-01-11T02:23:49.503Z,76.51
2019-01-11T02:24:48.748Z,76.57
2019-01-11T02:25:49.186Z,76.52
2019-01-11T02:26:48.728Z,76.32
2019-01-11T02:27:48.783Z,76.62
2019-01-11T02:28:48.913Z,76.5
2019-01-11T02:29:48.868Z,76.35
2019-01-11T02:30:49.029Z,76.32
2019-01-11T02:31:49.072Z,76.37
2019-01-11T02:32:53.552Z,76.48
2019-01-11T02:33:49.586Z,76.55
2019-01-11T02:34:49.590Z,76.56
2019-01-11T02:35:48.769Z,76.51
2019-01-11T02:36:48.815Z,76.62
2019-01-11T02:37:49.596Z,76.63
2019-01-11T02:38:48.836Z,76.52
2019-01-11T02:39:48.757Z,76.4
2019-01-11T02:40:48.765Z,76.77
2019-01-11T02:41:48.734Z,76.93
2019-01-11T02:42:48.722Z,76.74
2019-01-11T02:43:48.764Z,76.87
2019-01-11T02:44:48.838Z,76.86
2019-01-11T02:45:48.844Z,76.77
2019-01-11T02:46:48.788Z,76.76
2019-01-11T02:47:48.720Z,76.55
2019-01-11T02:48:48.748Z,76.58
2019-01-11T02:49:48.740Z,76.58
2019-01-11T02:50:48.798Z,76.61
2019-01-11T02:51:49.028Z,76.45
2019-01-11T02:52:48.748Z,76.5
2019-01-11T02:53:48.735Z,76.39
2019-01-11T02:54:48.784Z,76.42
2019-01-11T02:55:48.809Z,76.27
2019-01-11T02:56:48.842Z,76.31
2019-01-11T02:57:48.851Z,76.27
2019-01-11T02:58:48.682Z,76.45
2019-01-11T02:59:48.823Z,76.3
2019-01-11T03:00:48.769Z,76.31
2019-01-11T03:01:49.043Z,76.24
2019-01-11T03:02:48.743Z,76.08
2019-01-11T03:03:49.226Z,75.97
2019-01-11T03:04:48.936Z,76.06
2019-01-11T03:05:49.014Z,76.24
2019-01-11T03:06:49.259Z,76.25
2019-01-11T03:07:48.768Z,76.21
2019-01-11T03:08:48.721Z,76.2
2019-01-11T03:09:48.942Z,76.11
2019-01-11T03:10:49.078Z,76.14
2019-01-11T03:11:49.336Z,76.05
2019-01-11T03:12:48.686Z,76.08
2019-01-11T03:13:49.070Z,76.21
2019-01-11T03:14:48.742Z,76.16
2019-01-11T03:15:49.124Z,76.07
2019-01-11T03:16:48.699Z,76.2
2019-01-11T03:17:49.007Z,76.45
2019-01-11T03:18:48.705Z,76.36
2019-01-11T03:19:48.906Z,76.11
2019-01-11T03:20:49.144Z,76
2019-01-11T03:21:48.693Z,76.43
2019-01-11T03:22:48.704Z,76.41
2019-01-11T03:23:48.694Z,76.38
2019-01-11T03:24:48.790Z,76.35
2019-01-11T03:25:48.843Z,76.25
2019-01-11T03:26:48.988Z,76.37
2019-01-11T03:27:48.817Z,76.3
2019-01-11T03:28:48.798Z,76.14
2019-01-11T03:29:48.990Z,76.23
2019-01-11T03:30:48.904Z,76.35
2019-01-11T03:31:48.766Z,76.37
2019-01-11T03:32:48.996Z,76.65
2019-01-11T03:33:48.946Z,76.54
2019-01-11T03:34:50.749Z,76.54
2019-01-11T03:35:48.712Z,76.65
2019-01-11T03:36:48.789Z,76.95
2019-01-11T03:37:49.155Z,76.56
2019-01-11T03:38:48.693Z,76.53
2019-01-11T03:39:48.856Z,76.6
2019-01-11T03:40:49.476Z,76.49
2019-01-11T03:41:48.873Z,76.66
2019-01-11T03:42:49.084Z,76.73
2019-01-11T03:43:49.115Z,76.84
2019-01-11T03:44:48.763Z,77.01
2019-01-11T03:45:48.768Z,77.14
2019-01-11T03:46:48.808Z,77.13
2019-01-11T03:47:49.193Z,77.18
2019-01-11T03:48:49.441Z,77.07
2019-01-11T03:49:55.275Z,77.03
2019-01-11T03:50:48.776Z,77
2019-01-11T03:51:48.798Z,76.95
2019-01-11T03:52:48.848Z,76.88
2019-01-11T03:53:48.665Z,77.4
2019-01-11T03:54:49.018Z,77.1
2019-01-11T03:55:48.662Z,77.22
2019-01-11T03:56:48.993Z,77.18
2019-01-11T03:57:49.160Z,77.07
2019-01-11T03:58:49.016Z,77.18
2019-01-11T03:59:48.628Z,76.85
2019-01-11T04:00:49.038Z,76.82
2019-01-11T04:01:48.674Z,76.74
2019-01-11T04:02:48.644Z,76.98
2019-01-11T04:03:48.805Z,77.38
2019-01-11T04:04:48.864Z,77.39
2019-01-11T04:05:49.091Z,77.43
2019-01-11T04:06:48.728Z,77.38
2019-01-11T04:07:48.985Z,77.44
2019-01-11T04:08:48.893Z,77.34
2019-01-11T04:09:48.775Z,77.39
2019-01-11T04:10:48.812Z,77.24
2019-01-11T04:11:48.606Z,77.18
2019-01-11T04:12:48.669Z,77.18
2019-01-11T04:13:49.113Z,77.46
2019-01-11T04:14:48.820Z,77.52
2019-01-11T04:15:48.839Z,77.67
2019-01-11T04:16:48.759Z,77.54
2019-01-11T04:17:48.877Z,77.52
2019-01-11T04:18:48.710Z,77.59
2019-01-11T04:19:49.190Z,77.56
2019-01-11T04:20:48.627Z,77.66
2019-01-11T04:21:48.660Z,77.67
2019-01-11T04:22:48.647Z,77.54
2019-01-11T04:23:48.816Z,77.69
2019-01-11T04:24:48.649Z,77.82
2019-01-11T04:25:48.697Z,77.71
2019-01-11T04:26:48.689Z,77.66
2019-01-11T04:27:48.704Z,77.44
2019-01-11T04:28:48.741Z,77.49
2019-01-11T04:29:49.310Z,77.48
2019-01-11T04:30:48.670Z,77.36
2019-01-11T04:31:48.601Z,77.49
2019-01-11T04:32:48.859Z,77.5
2019-01-11T04:33:48.661Z,77.45
2019-01-11T04:34:48.666Z,77.45
2019-01-11T04:35:48.741Z,77.7
2019-01-11T04:36:48.667Z,77.64
2019-01-11T04:37:48.658Z,77.68
2019-01-11T04:38:48.677Z,77.75
2019-01-11T04:39:48.693Z,77.95
2019-01-11T04:40:48.829Z,77.98
2019-01-11T04:41:48.779Z,77.89
2019-01-11T04:42:48.822Z,77.81
2019-01-11T04:43:48.819Z,77.75
2019-01-11T04:44:48.705Z,77.79
2019-01-11T04:45:48.617Z,77.54
2019-01-11T04:46:48.740Z,77.75
2019-01-11T04:47:49.441Z,77.65
2019-01-11T04:48:48.910Z,77.84
2019-01-11T04:49:48.601Z,77.98
2019-01-11T04:50:48.668Z,77.45
2019-01-11T04:51:49.030Z,77.47
2019-01-11T04:52:48.556Z,77.86
2019-01-11T04:53:48.551Z,77.57
2019-01-11T04:54:48.642Z,77.49
2019-01-11T04:55:48.724Z,77.55
2019-01-11T04:56:49.080Z,77.51
2019-01-11T04:57:48.561Z,77.48
2019-01-11T04:58:48.616Z,77.46
2019-01-11T04:59:49.048Z,77.49
2019-01-11T05:00:49.152Z,77.62
2019-01-11T05:01:49.260Z,77.59
2019-01-11T05:02:48.793Z,77.59
2019-01-11T05:03:48.941Z,77.78
2019-01-11T05:04:48.659Z,77.89
2019-01-11T05:05:49.204Z,77.91
2019-01-11T05:06:48.755Z,77.83
2019-01-11T05:07:48.687Z,77.91
2019-01-11T05:08:48.580Z,77.73
2019-01-11T05:09:48.597Z,77.83
2019-01-11T05:10:48.599Z,77.81
2019-01-11T05:11:48.661Z,77.9
2019-01-11T05:12:48.761Z,77.96
2019-01-11T05:13:48.824Z,77.83
2019-01-11T05:14:48.740Z,77.75
2019-01-11T05:15:48.725Z,77.81
2019-01-11T05:16:49.026Z,77.83
2019-01-11T05:17:48.862Z,77.93
2019-01-11T05:18:48.597Z,78.01
2019-01-11T05:19:48.644Z,78.14
2019-01-11T05:20:48.950Z,78.05
2019-01-11T05:21:48.860Z,78
2019-01-11T05:22:48.760Z,78.17
2019-01-11T05:23:48.729Z,78.1
2019-01-11T05:24:48.552Z,78.25
2019-01-11T05:25:48.579Z,78.43
2019-01-11T05:26:48.770Z,78.35
2019-01-11T05:27:48.652Z,78.38
2019-01-11T05:28:48.703Z,78.52
2019-01-11T05:29:48.534Z,78.62
2019-01-11T05:30:48.813Z,78.53
2019-01-11T05:31:48.936Z,78.59
2019-01-11T05:32:48.968Z,78.79
2019-01-11T05:33:48.772Z,78.72
2019-01-11T05:34:48.878Z,78.84
2019-01-11T05:35:49.027Z,79.01
2019-01-11T05:36:49.119Z,79.06
2019-01-11T05:37:48.546Z,78.95
2019-01-11T05:38:48.510Z,78.98
2019-01-11T05:39:48.693Z,79
2019-01-11T05:40:48.747Z,79.26
2019-01-11T05:41:48.830Z,79.19
2019-01-11T05:42:48.778Z,79.3
2019-01-11T05:43:48.816Z,79.44
2019-01-11T05:44:48.606Z,79.43
2019-01-11T05:45:48.816Z,79.41
2019-01-11T05:46:48.670Z,79.38
2019-01-11T05:47:49.108Z,79.57
2019-01-11T05:48:48.702Z,79.61
2019-01-11T05:49:48.700Z,79.54
2019-01-11T05:50:48.838Z,79.7
2019-01-11T05:51:48.516Z,79.37
2019-01-11T05:52:48.698Z,79.24
2019-01-11T05:53:48.881Z,79.21
2019-01-11T05:54:48.515Z,79.08
2019-01-11T05:55:48.596Z,79.06
2019-01-11T05:56:48.810Z,79.77
2019-01-11T05:57:48.767Z,79.66
2019-01-11T05:58:49.061Z,79.89
2019-01-11T05:59:48.512Z,79.95
2019-01-11T06:00:49.067Z,79.95
2019-01-11T06:01:48.540Z,79.61
2019-01-11T06:02:48.560Z,79.94
2019-01-11T06:03:49.212Z,79.76
2019-01-11T06:04:48.922Z,79.6
2019-01-11T06:05:48.551Z,79.77
2019-01-11T06:06:48.563Z,80.03
2019-01-11T06:07:48.587Z,80.19
2019-01-11T06:08:48.632Z,80.15
2019-01-11T06:09:48.755Z,80.24
2019-01-11T06:10:48.690Z,80.39
2019-01-11T06:11:48.608Z,80.15
2019-01-11T06:12:48.603Z,80.06
2019-01-11T06:13:48.557Z,80.01
2019-01-11T06:14:48.534Z,79.96
2019-01-11T06:15:48.597Z,80.28
2019-01-11T06:16:48.507Z,80.1
2019-01-11T06:17:48.596Z,80.26
2019-01-11T06:18:48.644Z,80.35
2019-01-11T06:19:48.583Z,80.15
2019-01-11T06:20:48.770Z,80.16
2019-01-11T06:21:48.801Z,80.08
2019-01-11T06:22:48.692Z,80.37
2019-01-11T06:23:48.523Z,80.18
2019-01-11T06:24:48.497Z,80.22
2019-01-11T06:25:48.469Z,80.29
2019-01-11T06:26:49.225Z,80.37
2019-01-11T06:27:48.746Z,80.52
2019-01-11T06:28:48.483Z,80.5
2019-01-11T06:29:48.623Z,80.4
2019-01-11T06:30:48.961Z,80.47
2019-01-11T06:31:48.695Z,80.62
2019-01-11T06:32:48.819Z,80.14
2019-01-11T06:33:48.447Z,80.02
2019-01-11T06:34:48.458Z,79.98
2019-01-11T06:35:48.579Z,79.86
2019-01-11T06:36:48.550Z,80.12
2019-01-11T06:37:49.177Z,80.07
2019-01-11T06:38:48.811Z,80.15
2019-01-11T06:39:48.565Z,80.18
2019-01-11T06:40:48.818Z,80.18
2019-01-11T06:41:48.681Z,80.35
2019-01-11T06:42:48.720Z,80.19
2019-01-11T06:43:48.835Z,80.17
2019-01-11T06:44:49.229Z,79.93
2019-01-11T06:45:48.550Z,80.14
2019-01-11T06:46:48.664Z,79.87
2019-01-11T06:47:48.433Z,79.82
2019-01-11T06:48:48.704Z,79.99
2019-01-11T06:49:48.640Z,80
2019-01-11T06:50:48.469Z,79.89
2019-01-11T06:51:48.575Z,80.23
2019-01-11T06:52:48.911Z,80.27
2019-01-11T06:53:48.429Z,80.13
2019-01-11T06:54:48.787Z,79.74
2019-01-11T06:55:49.271Z,79.92
2019-01-11T06:56:48.437Z,79.92
2019-01-11T06:57:48.632Z,79.81
2019-01-11T06:58:48.534Z,79.87
2019-01-11T06:59:48.737Z,79.82
2019-01-11T07:00:48.688Z,79.72
2019-01-11T07:01:48.419Z,79.85
2019-01-11T07:02:48.553Z,79.6
2019-01-11T07:03:48.727Z,79.6
2019-01-11T07:04:48.452Z,79.88
2019-01-11T07:05:48.536Z,79.82
2019-01-11T07:06:48.554Z,79.83
2019-01-11T07:07:48.771Z,79.58
2019-01-11T07:08:48.501Z,79.73
2019-01-11T07:09:48.400Z,79.69
2019-01-11T07:10:48.610Z,79.66
2019-01-11T07:11:48.527Z,79.98
2019-01-11T07:12:48.498Z,79.95
2019-01-11T07:13:48.961Z,79.84
2019-01-11T07:14:48.384Z,80.09
2019-01-11T07:15:49.007Z,80.2
2019-01-11T07:16:48.490Z,80.25
2019-01-11T07:17:49.234Z,80.28
2019-01-11T07:18:48.613Z,80.19
2019-01-11T07:19:48.659Z,80.03
2019-01-11T07:20:49.215Z,80.14
2019-01-11T07:21:48.424Z,80.17
2019-01-11T07:22:48.611Z,80.43
2019-01-11T07:23:48.563Z,80.29
2019-01-11T07:24:48.608Z,80.34
2019-01-11T07:25:48.628Z,80.18
2019-01-11T07:26:48.371Z,80.36
2019-01-11T07:27:48.379Z,80.58
2019-01-11T07:28:48.403Z,80.1
2019-01-11T07:29:48.366Z,80.1
2019-01-11T07:30:48.421Z,80.04
2019-01-11T07:31:49.303Z,79.93
2019-01-11T07:32:48.392Z,80.18
2019-01-11T07:33:48.369Z,80.55
2019-01-11T07:34:49.195Z,80.39
2019-01-11T07:35:49.408Z,80.33
2019-01-11T07:36:48.913Z,80.47
2019-01-11T07:37:48.347Z,80.51
2019-01-11T07:38:48.416Z,80.57
2019-01-11T07:39:48.540Z,80.55
2019-01-11T07:40:48.421Z,80.79
2019-01-11T07:41:48.359Z,80.97
2019-01-11T07:42:48.717Z,80.83
2019-01-11T07:43:48.346Z,80.8
2019-01-11T07:44:48.863Z,80.76
2019-01-11T07:45:48.349Z,80.83
2019-01-11T07:46:49.195Z,80.86
2019-01-11T07:47:48.368Z,80.78
2019-01-11T07:48:48.401Z,80.68
2019-01-11T07:49:48.367Z,80.75
2019-01-11T07:50:49.590Z,80.89
2019-01-11T07:51:48.410Z,81.29
2019-01-11T07:52:48.415Z,81.18
2019-01-11T07:53:48.412Z,81.88
2019-01-11T07:54:48.365Z,81.43
2019-01-11T07:55:48.350Z,81.54
2019-01-11T07:56:49.008Z,81.69
2019-01-11T07:57:48.658Z,81.74
2019-01-11T07:58:48.399Z,82.02
2019-01-11T07:59:48.333Z,81.95
2019-01-11T08:00:48.477Z,81.94
2019-01-11T08:01:48.497Z,81.86
2019-01-11T08:02:49.159Z,81.67
2019-01-11T08:03:48.377Z,81.79
2019-01-11T08:04:48.317Z,81.71
2019-01-11T08:05:48.461Z,81.66
2019-01-11T08:06:48.359Z,81.97
2019-01-11T08:07:48.321Z,82.11
2019-01-11T08:08:48.417Z,82
2019-01-11T08:09:48.314Z,82.03
2019-01-11T08:10:48.270Z,82.21
2019-01-11T08:11:48.315Z,82.26
2019-01-11T08:12:48.331Z,82.51
2019-01-11T08:13:48.276Z,82.54
2019-01-11T08:14:48.304Z,82.2
2019-01-11T08:15:48.547Z,82.35
2019-01-11T08:16:48.735Z,82.29
2019-01-11T08:17:48.365Z,82.38
2019-01-11T08:18:48.895Z,82.21
2019-01-11T08:19:48.390Z,82.44
2019-01-11T08:20:48.497Z,82.08
2019-01-11T08:21:48.717Z,82.24
2019-01-11T08:22:48.464Z,82.65
2019-01-11T08:23:48.420Z,82.62
2019-01-11T08:24:48.494Z,82.52
2019-01-11T08:25:48.383Z,82.73
2019-01-11T08:26:48.566Z,82.52
2019-01-11T08:27:48.301Z,82.4
2019-01-11T08:28:48.517Z,82.38
2019-01-11T08:29:48.526Z,82.35
2019-01-11T08:30:49.051Z,82.31
2019-01-11T08:31:48.473Z,82.44
2019-01-11T08:32:48.328Z,82.08
2019-01-11T08:33:48.856Z,82.27
2019-01-11T08:34:48.279Z,82.96
2019-01-11T08:35:48.505Z,82.81
2019-01-11T08:36:48.392Z,82.69
2019-01-11T08:37:48.297Z,82.87
2019-01-11T08:38:49.033Z,82.49
2019-01-11T08:39:48.630Z,82.86
2019-01-11T08:40:48.659Z,83.23
2019-01-11T08:41:48.384Z,83.1
2019-01-11T08:42:48.380Z,83.33
2019-01-11T08:43:48.333Z,83.02
2019-01-11T08:44:48.656Z,83.09
2019-01-11T08:45:48.594Z,82.98
2019-01-11T08:46:48.435Z,83.09
2019-01-11T08:47:48.383Z,83
2019-01-11T08:48:48.330Z,83.28
2019-01-11T08:49:48.504Z,83.23
2019-01-11T08:50:48.468Z,83.26
2019-01-11T08:51:48.332Z,83.3
2019-01-11T08:52:48.282Z,83.2
2019-01-11T08:53:48.552Z,83.23
2019-01-11T08:54:48.574Z,83.54
2019-01-11T08:55:48.748Z,83.27
2019-01-11T08:56:48.610Z,83.42
2019-01-11T08:57:48.332Z,83.35
2019-01-11T08:58:48.601Z,83.81
2019-01-11T08:59:48.472Z,83.76
2019-01-11T09:00:48.597Z,83.72
2019-01-11T09:01:48.440Z,83.57
2019-01-11T09:03:01.031Z,83.84
2019-01-11T09:03:48.462Z,84.06
2019-01-11T09:04:48.354Z,84.22
2019-01-11T09:05:48.752Z,84.05
2019-01-11T09:06:48.693Z,84.12
2019-01-11T09:07:48.651Z,84.08
2019-01-11T09:08:48.566Z,84.08
2019-01-11T09:09:48.431Z,83.92
2019-01-11T09:10:49.028Z,83.93
2019-01-11T09:11:48.418Z,84.23
2019-01-11T09:12:48.497Z,84.22
2019-01-11T09:13:48.382Z,84.03
2019-01-11T09:14:48.711Z,84.37
2019-01-11T09:15:49.319Z,84.03
2019-01-11T09:16:51.088Z,84.13
2019-01-11T09:17:48.705Z,84.25
2019-01-11T09:18:48.469Z,84.43
2019-01-11T09:19:48.301Z,84.2
2019-01-11T09:20:48.412Z,84.12
2019-01-11T09:21:48.301Z,84.47
2019-01-11T09:22:49.045Z,84.37
2019-01-11T09:23:48.334Z,84.73
2019-01-11T09:24:48.495Z,84.63
2019-01-11T09:25:48.423Z,84.83
2019-01-11T09:26:48.334Z,84.58
2019-01-11T09:27:48.299Z,84.21
2019-01-11T09:28:49.054Z,84.51
2019-01-11T09:29:48.409Z,84.55
2019-01-11T09:30:48.341Z,84.7
2019-01-11T09:31:48.426Z,84.85
2019-01-11T09:32:48.291Z,84.91
2019-01-11T09:33:49.035Z,84.9
2019-01-11T09:34:48.275Z,84.9
2019-01-11T09:35:48.309Z,85.16
2019-01-11T09:36:48.400Z,85.19
2019-01-11T09:37:48.222Z,85.02
2019-01-11T09:38:48.317Z,84.77
2019-01-11T09:39:48.340Z,84.51
2019-01-11T09:40:48.190Z,84.65
2019-01-11T09:41:48.246Z,84.46
2019-01-11T09:42:48.256Z,84.99
2019-01-11T09:43:48.214Z,84.83
2019-01-11T09:44:48.387Z,84.82
2019-01-11T09:45:48.322Z,84.77
2019-01-11T09:46:48.361Z,84.73
2019-01-11T09:47:48.470Z,84.96
2019-01-11T09:48:48.296Z,85.22
2019-01-11T09:49:48.299Z,85.43
2019-01-11T09:50:48.315Z,85.16
2019-01-11T09:51:48.231Z,84.7
2019-01-11T09:52:48.328Z,85.16
2019-01-11T09:53:48.183Z,84.87
2019-01-11T09:54:48.185Z,85.05
2019-01-11T09:55:48.186Z,85.44
2019-01-11T09:56:48.307Z,85.47
2019-01-11T09:57:48.379Z,84.9
2019-01-11T09:58:48.128Z,84.47
2019-01-11T09:59:48.325Z,84.56
2019-01-11T10:00:48.372Z,84.48
2019-01-11T10:01:48.473Z,84.29
2019-01-11T10:02:48.444Z,84.16
2019-01-11T10:03:48.270Z,84.77
2019-01-11T10:04:48.331Z,84.78
2019-01-11T10:05:48.168Z,84.9
2019-01-11T10:06:48.738Z,84.33
2019-01-11T10:07:48.400Z,84.11
2019-01-11T10:08:48.303Z,84.05
2019-01-11T10:09:48.239Z,83.95
2019-01-11T10:10:48.182Z,84.24
2019-01-11T10:11:48.476Z,84.39
2019-01-11T10:12:48.257Z,84.65
2019-01-11T10:13:48.251Z,84.51
2019-01-11T10:14:48.484Z,85.07
2019-01-11T10:15:48.696Z,85.18
2019-01-11T10:16:48.379Z,85.11
2019-01-11T10:17:48.811Z,85.42
2019-01-11T10:18:48.306Z,85.42
2019-01-11T10:19:48.260Z,85.27
2019-01-11T10:20:48.948Z,85.15
2019-01-11T10:21:48.200Z,85.32
2019-01-11T10:22:48.385Z,85.3
2019-01-11T10:23:48.641Z,85.66
2019-01-11T10:24:48.507Z,85.29
2019-01-11T10:25:48.227Z,85.56
2019-01-11T10:26:48.090Z,85.94
2019-01-11T10:27:48.258Z,86.09
2019-01-11T10:28:48.616Z,85.57
2019-01-11T10:29:48.144Z,85.55
2019-01-11T10:30:48.940Z,85.78
2019-01-11T10:31:48.338Z,85.69
2019-01-11T10:32:48.360Z,85.73
2019-01-11T10:33:48.191Z,85.88
2019-01-11T10:34:48.202Z,86.58
2019-01-11T10:35:48.416Z,86.29
2019-01-11T10:36:48.217Z,86.22
2019-01-11T10:37:48.183Z,86.01
2019-01-11T10:38:48.437Z,86.09
2019-01-11T10:39:48.093Z,85.97
2019-01-11T10:40:48.496Z,85.61
2019-01-11T10:41:48.086Z,85.96
2019-01-11T10:42:48.273Z,86
2019-01-11T10:43:48.933Z,86.04
2019-01-11T10:44:48.342Z,86.09
2019-01-11T10:45:48.199Z,85.78
2019-01-11T10:46:49.451Z,85.81
2019-01-11T10:47:48.260Z,85.89
2019-01-11T10:48:48.303Z,86.13
2019-01-11T10:49:49.375Z,86.13
2019-01-11T10:50:48.288Z,86.11
2019-01-11T10:51:48.073Z,86.27
2019-01-11T10:52:48.902Z,86.17
2019-01-11T10:53:48.248Z,86.33
2019-01-11T10:54:48.099Z,86.6
2019-01-11T10:55:48.351Z,86.4
2019-01-11T10:56:48.087Z,86.55
2019-01-11T10:57:48.170Z,86.28
2019-01-11T10:58:48.221Z,86.43
2019-01-11T10:59:48.415Z,86.37
2019-01-11T11:00:48.354Z,86.5
2019-01-11T11:01:48.480Z,86.5
2019-01-11T11:02:48.180Z,86.56
2019-01-11T11:03:48.051Z,86.7
2019-01-11T11:04:48.081Z,86.58
2019-01-11T11:05:48.268Z,86.6
2019-01-11T11:06:48.489Z,86.27
2019-01-11T11:07:48.111Z,86.63
2019-01-11T11:08:48.157Z,86.87
2019-01-11T11:09:48.768Z,86.88
2019-01-11T11:10:48.460Z,87.2
2019-01-11T11:11:50.873Z,86.95
2019-01-11T11:12:48.514Z,86.88
2019-01-11T11:13:48.229Z,86.92
2019-01-11T11:14:48.316Z,86.95
2019-01-11T11:15:48.327Z,86.72
2019-01-11T11:16:48.177Z,86.67
2019-01-11T11:17:48.464Z,86.52
2019-01-11T11:18:48.286Z,86.76
2019-01-11T11:19:48.646Z,87.08
2019-01-11T11:20:48.585Z,86.98
2019-01-11T11:21:48.239Z,86.8
2019-01-11T11:22:48.717Z,86.78
2019-01-11T11:23:48.590Z,86.93
2019-01-11T11:24:48.080Z,86.93
2019-01-11T11:25:48.889Z,86.79
2019-01-11T11:26:48.237Z,86.88
2019-01-11T11:27:48.341Z,86.78
2019-01-11T11:28:48.148Z,86.77
2019-01-11T11:29:48.124Z,86.79
2019-01-11T11:30:51.210Z,86.8
2019-01-11T11:31:48.165Z,86.85
2019-01-11T11:32:48.272Z,86.56
2019-01-11T11:33:48.135Z,86.87
2019-01-11T11:34:48.466Z,86.68
2019-01-11T11:35:48.566Z,86.54
2019-01-11T11:36:48.092Z,86.7
2019-01-11T11:37:48.294Z,86.66
2019-01-11T11:38:48.078Z,86.75
2019-01-11T11:39:49.421Z,86.89
2019-01-11T11:40:48.157Z,86.93
2019-01-11T11:41:48.183Z,86.61
2019-01-11T11:42:49.414Z,86.75
2019-01-11T11:43:48.135Z,86.89
2019-01-11T11:44:48.216Z,87.06
2019-01-11T11:45:48.151Z,87.1
2019-01-11T11:46:48.241Z,87.32
2019-01-11T11:47:48.418Z,87.58
2019-01-11T11:48:48.038Z,87.58
2019-01-11T11:49:48.059Z,88.22
2019-01-11T11:50:48.100Z,88.94
2019-01-11T11:51:48.588Z,88.57
2019-01-11T11:52:48.657Z,88.04
2019-01-11T11:53:48.310Z,87.48
2019-01-11T11:54:48.143Z,87.58
2019-01-11T11:55:48.815Z,87.84
2019-01-11T11:56:48.334Z,87.47
2019-01-11T11:57:48.269Z,87.67
2019-01-11T11:58:48.446Z,88.01
2019-01-11T11:59:48.571Z,88.02
2019-01-11T12:00:48.940Z,88.1
2019-01-11T12:01:52.344Z,88.13
2019-01-11T12:02:48.838Z,88.22
2019-01-11T12:03:48.294Z,88.4
2019-01-11T12:04:48.035Z,88.81
2019-01-11T12:05:48.242Z,88.96
2019-01-11T12:06:48.383Z,88.62
2019-01-11T12:07:48.257Z,88.74
2019-01-11T12:08:47.992Z,88.52
2019-01-11T12:09:48.476Z,88.57
2019-01-11T12:10:48.154Z,88.63
2019-01-11T12:11:48.023Z,88.6
2019-01-11T12:12:48.086Z,88.65
2019-01-11T12:13:48.042Z,88.55
2019-01-11T12:14:48.549Z,88.71
2019-01-11T12:15:48.088Z,88.74
2019-01-11T12:16:48.014Z,88.74
2019-01-11T12:17:48.120Z,88.57
2019-01-11T12:18:47.980Z,88.84
2019-01-11T12:19:48.102Z,88.93
2019-01-11T12:20:48.197Z,88.73
2019-01-11T12:21:48.322Z,88.76
2019-01-11T12:22:48.125Z,89.06
2019-01-11T12:23:48.179Z,89.16
2019-01-11T12:24:48.272Z,89.22
2019-01-11T12:25:48.052Z,89.5
2019-01-11T12:26:48.843Z,89.45
2019-01-11T12:27:49.846Z,90.17
2019-01-11T12:28:48.146Z,90.49
2019-01-11T12:29:47.983Z,89.79
2019-01-11T12:30:47.975Z,89.58
2019-01-11T12:31:48.238Z,89.42
2019-01-11T12:32:47.955Z,88.94
2019-01-11T12:33:48.202Z,89.05
2019-01-11T12:34:47.986Z,89.17
2019-01-11T12:35:47.999Z,89.13
2019-01-11T12:36:48.213Z,88.78
2019-01-11T12:37:48.092Z,88.73
2019-01-11T12:38:48.833Z,89.02
2019-01-11T12:39:48.140Z,88.98
2019-01-11T12:40:48.343Z,89.28
2019-01-11T12:41:47.948Z,89.39
2019-01-11T12:42:48.034Z,89.49
2019-01-11T12:43:47.988Z,89.54
2019-01-11T12:44:48.158Z,89.48
2019-01-11T12:45:48.138Z,89.76
2019-01-11T12:46:48.335Z,89.53
2019-01-11T12:47:48.002Z,89.66
2019-01-11T12:48:48.145Z,89.73
2019-01-11T12:49:48.154Z,90.03
2019-01-11T12:50:48.015Z,89.91
2019-01-11T12:51:54.192Z,89.77
2019-01-11T12:52:48.791Z,89.87
2019-01-11T12:53:48.733Z,89.79
2019-01-11T12:54:48.170Z,89.7
2019-01-11T12:55:48.153Z,89.5